Terminal Aerodrome Forecast
Issued by NWS Upton, NY

Home | Current Version | Previous Version | Text Only | Print | Product List | Glossary On
Versions: 1 2 3 4 5 6 7 8 9 10 11 12 13 14 15 16 17 18 19 20 21 22 23 24 25 26 27 28 29 30 31 32 33
000
FTUS41 KOKX 211741
TAFLGA
TAF
KLGA 211741Z 2118/2218 22014G22KT P6SM SCT250
     FM212200 21012KT P6SM SCT250
     FM220100 21009KT P6SM SCT045 SCT250
     FM220600 20007KT P6SM BKN045
     FM220800 21006KT 6SM -RA OVC040
     FM221100 VRB05KT 5SM -RA OVC025
     FM221400 31008KT P6SM VCSH SCT025 BKN045
     FM221600 32010G18KT P6SM SCT030 BKN080=

USA.gov is the U.S. government's official web portal to all federal, state and local government web resources and services.